Flood watches and warnings may be in place at some locations. For the latest rainfall, river conditions, flood watches and warnings see BoM.

Forecasts are only available for sites displaying the forecast symbol.

Some water levels are actually in metres AHD (Australian Height Datum), click individual sites for more details.

Scroll for more >

River gauges, storages, and weirs in the Murray–Darling Basin

Type Locationsort ascending River Water level Flow Volume Release Water temp Salinity Rainfall
Weirs Yarrawonga Weir Upstream Murray 124.68 m 28/11/2021 1:45 Not measured Not measured Not measured Not measured Not measured 0.00 mm 26/11/2021 9:00 Full data
Weirs Yarrawonga Weir Downstream Murray 3.53 m 28/11/2021 2:00 28045 ML/Day 28/11/2021 2:00 Not measured Not measured 19.8°C 28/11/2021 2:00 62.5 μS/cm 28/11/2021 2:00 Not measured Full data
River Gauge Yarrawonga Main Channel Murray 123.41 m 28/11/2021 1:45 Not measured Not measured 350.3 ML/d28/11/2021 1:45 Not measured Not measured Not measured Full data
River Gauge Wilcania Darling 2.46 m 28/11/2021 1:45 3250 ML/Day 28/11/2021 1:45 Not measured Not measured 23.2°C 28/11/2021 1:45 421.1 μS/cm 28/11/2021 1:45 Not measured Full data
Weirs Wentworth Weir Murray 29.05 m 28/11/2021 1:45 Not measured Not measured 25697.0 ML/d27/11/2021 8:45 Not measured 136.0 μS/cm 28/09/2021 7:45 Not measured Full data
River Gauge Weir 32 Upstream Darling 2.04 m 28/11/2021 1:45 2448 ML/Day 28/11/2021 1:45 Not measured Not measured 22.5°C 28/11/2021 1:45 476.2 μS/cm 28/11/2021 1:45 Not measured Full data
River Gauge Wakool Junction Murray 5.2 m 28/11/2021 1:45 19684 ML/Day 28/11/2021 1:45 Not measured Not measured 21.3°C 28/11/2021 1:45 77.7 μS/cm 28/11/2021 1:45 Not measured Full data
River Gauge Wakool Canal Wakool 0.71 m 28/11/2021 1:45 Not measured Not measured 750.3 ML/d27/11/2021 8:45 Not measured Not measured Not measured Full data
Weirs Torrumbarry Weir Upstream Murray 86.05 m 28/11/2021 1:15 Not measured 37 GL 27/11/2021 7:45 Not measured 20.3°C 27/11/2021 7:45 63.8 μS/cm 27/11/2021 21:45 0.00 mm 25/11/2021 9:00 Full data
Weirs Torrumbarry Weir Downstream Murray 3.99 m 28/11/2021 1:45 13394 ML/Day 28/11/2021 1:45 Not measured Not measured 20.8°C 28/11/2021 1:45 64.5 μS/cm 28/11/2021 1:45 Not measured Full data
River Gauge Torrumbarry Headworks Murray 84.54 m 28/11/2021 1:45 Not measured Not measured 973.8 ML/d28/11/2021 1:45 Not measured Not measured Not measured Full data
River Gauge Tocumwal Murray 3.92 m 28/11/2021 1:45 24907 ML/Day 28/11/2021 1:45 Not measured Not measured 19.9°C 28/11/2021 1:45 54.2 μS/cm 28/11/2021 1:45 Not measured Full data
River Gauge Tauwitchere Barrage Murray 0.87 m 27/11/2021 23:45 Not measured Not measured Not measured Not measured Not measured Not measured Full data
River Gauge Tallandoon Mitta 1.74 m 28/11/2021 1:45 1370 ML/Day 28/11/2021 1:45 Not measured Not measured 16.0°C 28/11/2021 1:45 54.9 μS/cm 28/11/2021 1:45 Not measured Full data
River Gauge Tallandoon Mitta 1.74 m 28/11/2021 1:45 1370 ML/Day 28/11/2021 1:45 Not measured Not measured 16.0°C 28/11/2021 1:45 54.9 μS/cm 28/11/2021 1:45 Not measured Full data
River Gauge Swan Hill Murray 2.36 m 28/11/2021 1:45 13684 ML/Day 28/11/2021 1:45 Not measured Not measured 21.0°C 28/11/2021 1:45 80.3 μS/cm 28/11/2021 1:45 Not measured Full data
River Gauge Stoney Crossing Murray 1.98 m 28/11/2021 1:45 6717 ML/Day 28/10/2021 11:45 Not measured 2294.1 ML/d27/11/2021 7:45 22.1°C 28/11/2021 1:45 82.2 μS/cm 28/11/2021 1:45 Not measured Full data
Weirs Steven's Weir Upstream Edward 4.69 m 28/11/2021 2:15 Not measured Not measured Not measured Not measured Not measured Not measured Full data
Weirs Steven's Weir Downstream Edward 3.02 m 28/11/2021 1:45 3904 ML/Day 28/11/2021 1:45 Not measured Not measured 20.9°C 28/11/2021 1:45 62.2 μS/cm 28/11/2021 1:45 Not measured Full data
River Gauge Rufus River Murray 23.13 m 26/11/2021 7:45 Not measured Not measured 1816.0 ML/d26/11/2021 7:45 Not measured 163.9 μS/cm 27/11/2021 23:45 Not measured Full data
River Gauge Rochester Campaspe 1.89 m 28/11/2021 1:45 200 ML/Day 28/11/2021 1:45 Not measured Not measured 19.5°C 28/11/2021 1:45 587.4 μS/cm 28/11/2021 1:45 0.00 mm 26/11/2021 9:00 Full data
River Gauge Redcliffs Murray Not measured Not measured Not measured Not measured Not measured 121.9 μS/cm 27/11/2021 7:45 Not measured Full data
River Gauge Pinegrove Murray 3.18 m 28/11/2021 2:15 6670 ML/Day 28/11/2021 2:15 Not measured Not measured 15.6°C 28/11/2021 1:45 65.8 μS/cm 28/11/2021 1:45 10.4 mm 26/11/2021 9:00 Full data
River Gauge Peechelba Ovens 128.72 m 28/11/2021 1:45 6206 ML/Day 28/11/2021 1:45 Not measured Not measured 18.6°C 28/11/2021 1:45 67.9 μS/cm 28/11/2021 1:45 Not measured Full data
River Gauge Murray Bridge Murray 0.89 m 27/11/2021 23:45 Not measured Not measured Not measured 19.8°C 27/11/2021 23:45 206.7 μS/cm 27/11/2021 23:45 Not measured Full data
River Gauge Mundoo Barrage Murray 0.81 m 27/11/2021 7:45 Not measured Not measured Not measured Not measured Not measured Not measured Full data
River Gauge Mulwala Canal Murray Not measured Not measured Not measured 600.3 ML/d27/11/2021 8:45 Not measured Not measured Not measured Full data
River Gauge Morgan Downstream Murray Not measured Not measured Not measured 28176.8 ML/d27/11/2021 23:45 Not measured 214.1 μS/cm 27/11/2021 23:45 Not measured Full data
Weirs Mildura Weir downstream Murray 32.01 m 28/11/2021 1:45 Not measured Not measured Not measured 22.0°C 28/11/2021 1:45 141.7 μS/cm 28/11/2021 1:45 Not measured Full data
Storage Menindee Lakes Darling Not measured Not measured 1919 GL 27/11/2021 7:45 Not measured Not measured Not measured Not measured Full data
River Gauge McCoy Bridge Goulburn 1.89 m 28/11/2021 1:45 1658 ML/Day 28/11/2021 1:45 Not measured Not measured 20.4°C 28/11/2021 1:45 129.4 μS/cm 28/11/2021 1:45 Not measured Full data
Weirs Lock 9 Upstream Murray 27.46 m 27/11/2021 23:45 Not measured Not measured Not measured 21.6°C 27/11/2021 23:45 162.0 μS/cm 27/11/2021 23:45 Not measured Full data
Weirs Lock 9 Downstream Murray 25.69 m 27/11/2021 23:45 Not measured Not measured Not measured Not measured Not measured Not measured Full data
Weirs Lock 8 Upstream Murray 24.61 m 27/11/2021 23:45 Not measured Not measured Not measured 21.7°C 27/11/2021 23:45 165.7 μS/cm 27/11/2021 23:45 Not measured Full data
Weirs Lock 7 Upstream Murray 22.8 m 27/11/2021 23:45 Not measured Not measured Not measured 21.7°C 27/11/2021 23:45 161.6 μS/cm 27/11/2021 23:45 Not measured Full data
Weirs Lock 7 Downstream Murray 22.77 m 27/11/2021 23:45 Not measured Not measured Not measured Not measured Not measured Not measured Full data
Weirs Lock 6 Upstream Murray 19.23 m 27/11/2021 23:45 Not measured Not measured Not measured 21.5°C 27/11/2021 23:45 173.4 μS/cm 27/11/2021 23:45 Not measured Full data
Weirs Lock 6 Downstream Murray 17.91 m 27/11/2021 23:45 Not measured Not measured Not measured Not measured Not measured Not measured Full data
Weirs Lock 5 Upstream Murray 16.46 m 28/11/2021 0:00 Not measured Not measured Not measured 21.6°C 28/11/2021 0:00 189.1 μS/cm 28/11/2021 0:00 Not measured Full data
Weirs Lock 5 Downstream Murray 14.65 m 28/11/2021 0:00 Not measured Not measured Not measured Not measured Not measured Not measured Full data
Weirs Lock 4 Upstream Murray 13.22 m 27/11/2021 23:45 Not measured Not measured Not measured Not measured Not measured Not measured Full data
Weirs Lock 4 Downstream Murray 12.27 m 27/11/2021 23:45 Not measured Not measured Not measured Not measured Not measured Not measured Full data
Weirs Lock 3 Upstream Murray 9.82 m 27/11/2021 23:45 Not measured Not measured Not measured Not measured Not measured Not measured Full data
Weirs Lock 3 Downstream Murray 8.07 m 27/11/2021 23:45 Not measured Not measured Not measured Not measured Not measured Not measured Full data
Weirs Lock 2 Upstream Murray 6.09 m 27/11/2021 23:45 Not measured Not measured Not measured 20.8°C 27/11/2021 23:45 218.0 μS/cm 27/11/2021 23:45 Not measured Full data
Weirs Lock 2 Downstream Murray 5.25 m 27/11/2021 23:45 Not measured Not measured Not measured Not measured Not measured Not measured Full data
Weirs Lock 1 Upstream Murray 3.23 m 27/11/2021 23:45 Not measured Not measured Not measured 20.3°C 27/11/2021 23:45 224.6 μS/cm 27/11/2021 23:45 Not measured Full data
Weirs Lock 1 Downstream Murray 2.18 m 27/11/2021 23:45 Not measured Not measured 32778.9 ML/d26/11/2021 7:45 Not measured Not measured Not measured Full data
Storage Lake Victoria Murray 26.57 m 27/11/2021 23:45 Not measured 625 GL 27/11/2021 23:45 Not measured 18.3°C 27/11/2021 23:45 151.9 μS/cm 27/11/2021 23:45 Not measured Full data
River Gauge Lake Alexandrina Murray 0.85 m 27/11/2021 5:45 Not measured 1670 GL 26/11/2021 5:45 Not measured Not measured 378.7 μS/cm 27/11/2021 23:45 Not measured Full data
River Gauge Lake Albert Murray 0.77 m 27/11/2021 5:45 Not measured 274 GL 27/11/2021 5:45 Not measured Not measured Not measured Not measured Full data
River Gauge Kerang Loddon 0.37 m 28/11/2021 1:45 228 ML/Day 28/11/2021 1:45 Not measured Not measured 21.5°C 28/11/2021 1:45 173.2 μS/cm 28/11/2021 1:45 Not measured Full data
River Gauge Jingellic Murray 3.99 m 28/11/2021 1:45 30641 ML/Day 28/11/2021 1:45 Not measured Not measured 16.6°C 28/11/2021 1:45 63.7 μS/cm 28/11/2021 1:45 13.4 mm 26/11/2021 9:00 Full data
Storage Hume Dam Murray 191.91 m 28/11/2021 2:15 Not measured 2986 GL 28/11/2021 2:15 30127.0 ML/d27/11/2021 8:00 Not measured Not measured 4.6 mm 26/11/2021 9:00 Full data
River Gauge Hinnomunjie Mitta 1.45 m 28/11/2021 1:45 3401 ML/Day 28/11/2021 1:45 Not measured Not measured 11.6°C 28/11/2021 1:45 55.0 μS/cm 28/11/2021 1:45 4.6 mm 26/11/2021 9:00 Full data
River Gauge Gulpa Creek Offtake Murray 3.21 m 28/11/2021 1:45 909 ML/Day 28/11/2021 1:45 Not measured Not measured Not measured Not measured Not measured Full data
River Gauge Frenchman Creek Murray 27.67 m 26/11/2021 7:45 Not measured Not measured 560.0 ML/d26/11/2021 7:45 Not measured Not measured Not measured Full data
River Gauge Flow to South Australia Murray Not measured Not measured Not measured 27339.6 ML/d26/11/2021 7:45 Not measured Not measured Not measured Full data
Weirs Euston Weir Upstream Murray 47.62 m 27/11/2021 8:45 Not measured 37 GL 27/11/2021 7:45 Not measured Not measured Not measured 145.9 mm 5/03/2020 9:00 Full data
Weirs Euston Weir Downstream Murray 45.69 m 28/11/2021 1:45 25259 ML/Day 28/11/2021 1:45 Not measured Not measured 21.8°C 28/11/2021 1:45 126.0 μS/cm 28/11/2021 1:45 Not measured Full data
River Gauge Edward River Offtake Murray 2.66 m 28/11/2021 2:15 1978 ML/Day 28/11/2021 2:15 Not measured Not measured 20.3°C 28/11/2021 1:45 61.8 μS/cm 28/11/2021 1:45 Not measured Full data
River Gauge Edward Escape Wakool 0.02 m 28/11/2021 1:45 0.00 ML/Day 28/11/2021 1:45 Not measured Not measured 20.1°C 28/11/2021 1:45 64.2 μS/cm 28/11/2021 1:45 Not measured Full data
River Gauge Echuca Wharf Murray 88.01 m 28/11/2021 1:45 Not measured Not measured Not measured Not measured Not measured Not measured Full data
River Gauge Doctors Point Murray 4.62 m 28/11/2021 2:15 37281 ML/Day 28/11/2021 2:15 Not measured Not measured 16.4°C 28/11/2021 2:15 50.7 μS/cm 28/11/2021 2:00 Not measured Full data
Storage Dartmouth Dam Mitta 477.07 m 28/11/2021 3:00 Not measured 3297 GL 28/11/2021 3:00 Not measured Not measured Not measured Not measured Full data
Storage Dartmouth Dam Mitta 477.07 m 28/11/2021 3:00 Not measured 3297 GL 28/11/2021 3:00 Not measured Not measured Not measured Not measured Full data
River Gauge Corowa Murray 4.45 m 28/11/2021 2:00 28480 ML/Day 28/11/2021 2:00 Not measured Not measured 17.4°C 28/11/2021 2:00 54.6 μS/cm 28/11/2021 2:00 Not measured Full data
River Gauge Colignan Murray 4.24 m 28/11/2021 1:45 25466 ML/Day 28/11/2021 1:45 Not measured Not measured 21.7°C 28/11/2021 1:45 117.2 μS/cm 28/11/2021 1:45 Not measured Full data
River Gauge Colemans Mitta 0.9 m 28/11/2021 3:00 200 ML/Day 28/11/2021 3:00 Not measured Not measured 14.6°C 28/11/2021 1:45 59.9 μS/cm 28/11/2021 1:45 Not measured Full data
River Gauge Colemans Mitta 0.9 m 28/11/2021 3:00 200 ML/Day 28/11/2021 3:00 Not measured Not measured 14.6°C 28/11/2021 1:45 59.9 μS/cm 28/11/2021 1:45 Not measured Full data
River Gauge Burtundy Darling 1.62 m 28/11/2021 1:45 2319 ML/Day 28/11/2021 1:45 Not measured Not measured 22.6°C 28/11/2021 1:45 327.4 μS/cm 28/11/2021 1:45 Not measured Full data
River Gauge Bringenbrong Bridge Murray 2.21 m 28/11/2021 2:15 9297 ML/Day 28/11/2021 2:15 Not measured Not measured Not measured Not measured Not measured Full data
River Gauge Biggara Murray 1.34 m 28/11/2021 1:45 3750 ML/Day 28/11/2021 1:45 Not measured Not measured 12.9°C 28/11/2021 2:00 19.2 μS/cm 28/11/2021 2:00 4.8 mm 26/11/2021 9:00 Full data
River Gauge Barmah Choke Murray 3.5 m 28/11/2021 1:45 12071 ML/Day 28/11/2021 1:45 Not measured Not measured Not measured Not measured Not measured Full data
River Gauge Bandiana Kiewa 2.18 m 28/11/2021 1:45 2322 ML/Day 28/11/2021 1:45 Not measured Not measured 16.6°C 28/11/2021 1:45 53.8 μS/cm 28/11/2021 1:45 Not measured Full data
River Gauge Balranald Murrumbidgee 5.82 m 28/11/2021 1:45 9586 ML/Day 28/11/2021 1:45 Not measured Not measured 21.2°C 28/11/2021 1:45 183.0 μS/cm 28/11/2021 1:45 Not measured Full data
River Gauge Albury (Union Bridge) Murray 3.75 m 28/11/2021 2:00 Not measured Not measured Not measured 16.5°C 28/11/2021 2:15 67.3 μS/cm 28/11/2021 2:00 Not measured Full data